Time;durP1;ratioP1;P1;durP2;ratioP2;P2;SDS_P1;SDS_P2;PMS_P1;PMS_P2;Temp;Humidity;BMP_temperature;BMP_pressure;BME280_temperature;BME280_humidity;BME280_pressure;Samples;Min_cycle;Max_cycle;Signal;HPM_P1;HPM_P2
2021/06/13 00:01:44;;;;;;;6.18;5.40;;;;;;;19.98;54.04;97327.25;5011752;28;20053;-75
2021/06/13 00:04:11;;;;;;;9.90;5.55;;;;;;;19.98;53.89;97327.25;5011345;28;20516;-74
2021/06/13 00:06:38;;;;;;;6.05;5.55;;;;;;;19.96;54.19;97324.03;5011883;28;20046;-75
2021/06/13 00:09:05;;;;;;;6.50;5.05;;;;;;;19.95;54.12;97323.22;5011949;28;20054;-75
2021/06/13 00:11:33;;;;;;;6.85;5.63;;;;;;;19.95;54.17;97330.38;5011887;28;20049;-75
2021/06/13 00:14:01;;;;;;;5.82;5.15;;;;;;;19.92;54.09;97320.25;5011418;28;20053;-75
2021/06/13 00:16:28;;;;;;;5.93;5.38;;;;;;;19.93;54.36;97329.78;5011690;28;20057;-75
2021/06/13 00:18:57;;;;;;;5.57;4.72;;;;;;;19.91;54.16;97326.56;5013404;28;20045;-74
2021/06/13 00:21:25;;;;;;;6.95;5.53;;;;;;;19.90;53.95;97322.31;5015582;28;20092;-75
2021/06/13 00:23:52;;;;;;;7.28;5.78;;;;;;;19.88;54.16;97327.00;5015218;28;20067;-75
2021/06/13 00:26:20;;;;;;;6.93;6.22;;;;;;;19.83;54.47;97325.03;5015328;28;20054;-75
2021/06/13 00:28:47;;;;;;;7.93;5.32;;;;;;;19.80;54.58;97336.06;5015328;28;20475;-75
2021/06/13 00:31:14;;;;;;;7.10;4.95;;;;;;;19.78;54.62;97334.66;5015146;28;20053;-75
2021/06/13 00:33:41;;;;;;;6.18;5.57;;;;;;;19.73;54.41;97336.13;5015079;28;20435;-75
2021/06/13 00:36:10;;;;;;;6.57;5.95;;;;;;;19.68;55.43;97341.25;5015101;28;20049;-75
2021/06/13 00:38:37;;;;;;;6.35;5.75;;;;;;;19.62;55.49;97342.13;5015377;28;20049;-75
2021/06/13 00:41:04;;;;;;;8.38;5.80;;;;;;;19.56;55.64;97348.31;5015066;28;20048;-75
2021/06/13 00:43:31;;;;;;;7.15;5.90;;;;;;;19.54;55.65;97353.00;5014802;28;20467;-75
2021/06/13 00:45:58;;;;;;;8.02;5.53;;;;;;;19.53;55.71;97352.22;5014960;28;20393;-74
2021/06/13 00:48:25;;;;;;;6.63;5.25;;;;;;;19.52;55.92;97358.53;5015291;28;20050;-75
2021/06/13 00:50:54;;;;;;;5.70;4.97;;;;;;;19.50;56.14;97352.66;5015380;28;20057;-74
2021/06/13 00:53:22;;;;;;;5.78;5.07;;;;;;;19.48;56.42;97352.06;5014878;28;20104;-74
2021/06/13 00:55:49;;;;;;;6.25;5.68;;;;;;;19.46;55.91;97361.22;5014860;28;20104;-75
2021/06/13 00:58:17;;;;;;;5.40;4.82;;;;;;;19.42;56.98;97349.50;5015304;28;20061;-75
2021/06/13 01:00:44;;;;;;;8.05;6.00;;;;;;;19.35;56.60;97350.38;5014642;28;20049;-75
2021/06/13 01:03:11;;;;;;;7.07;6.38;;;;;;;19.24;56.80;97355.56;5014298;28;20548;-75
2021/06/13 01:05:38;;;;;;;8.45;6.38;;;;;;;19.08;57.09;97349.81;5014483;28;20427;-75
2021/06/13 01:08:16;;;;;;;8.30;6.43;;;;;;;18.94;57.68;97354.41;5014627;28;20054;-75
2021/06/13 01:10:56;;;;;;;7.47;6.07;;;;;;;18.77;58.37;97353.28;5014478;28;20052;-75
2021/06/13 01:13:32;;;;;;;8.18;6.30;;;;;;;18.68;58.64;97349.31;5014450;28;20104;-75
2021/06/13 01:16:04;;;;;;;8.40;6.72;;;;;;;18.57;58.60;97357.94;5014554;28;20053;-75
2021/06/13 01:18:40;;;;;;;7.18;6.13;;;;;;;18.46;59.01;97352.28;5016231;28;20058;-73
2021/06/13 01:21:11;;;;;;;10.48;7.07;;;;;;;18.37;59.63;97353.59;5026678;28;20050;-74
2021/06/13 01:24:06;;;;;;;9.20;6.47;;;;;;;18.30;59.37;97350.16;5026067;28;20054;-73
2021/06/13 01:27:12;;;;;;;9.85;7.00;;;;;;;18.24;59.77;97358.94;5015282;28;20056;-75
2021/06/13 01:29:44;;;;;;;6.97;6.18;;;;;;;18.17;59.96;97350.22;5014725;28;20500;-74
2021/06/13 01:32:17;;;;;;;7.20;6.38;;;;;;;18.08;59.57;97350.50;5014838;28;20051;-75
2021/06/13 01:34:48;;;;;;;9.27;6.65;;;;;;;18.03;60.24;97347.66;5014104;28;20053;-75
2021/06/13 01:37:18;;;;;;;7.75;6.07;;;;;;;17.98;60.93;97355.41;5013987;28;20511;-75
2021/06/13 01:39:48;;;;;;;6.82;6.13;;;;;;;17.97;60.78;97352.97;5014005;28;20549;-75
2021/06/13 01:42:17;;;;;;;8.63;6.45;;;;;;;17.95;60.11;97355.00;5013791;28;20049;-75
2021/06/13 01:44:47;;;;;;;9.43;6.55;;;;;;;17.89;60.72;97356.69;5013720;28;20042;-75
2021/06/13 01:47:15;;;;;;;8.00;5.65;;;;;;;17.83;60.61;97360.16;5013955;28;20041;-75
2021/06/13 01:49:43;;;;;;;7.30;6.13;;;;;;;17.78;60.26;97355.47;5013808;28;20530;-75
2021/06/13 01:52:12;;;;;;;10.18;6.43;;;;;;;17.73;60.40;97359.72;5013845;28;20046;-75
2021/06/13 01:54:42;;;;;;;8.63;6.03;;;;;;;17.67;60.40;97362.19;5013373;28;20522;-76
2021/06/13 01:57:09;;;;;;;7.55;6.03;;;;;;;17.61;61.36;97356.94;5013798;28;20053;-75
2021/06/13 01:59:40;;;;;;;7.00;6.18;;;;;;;17.56;61.21;97352.28;5013822;28;20045;-75
2021/06/13 02:02:11;;;;;;;7.05;6.15;;;;;;;17.52;60.49;97350.28;5013627;28;20042;-75
2021/06/13 02:04:39;;;;;;;7.15;5.70;;;;;;;17.51;60.67;97362.63;5013305;28;20061;-75
2021/06/13 02:07:07;;;;;;;9.38;5.75;;;;;;;17.51;61.03;97354.72;5013274;28;20057;-76
2021/06/13 02:09:35;;;;;;;5.50;5.00;;;;;;;17.53;62.12;97354.53;5013863;28;20057;-76
2021/06/13 02:12:05;;;;;;;6.22;5.63;;;;;;;17.56;62.49;97352.28;5013512;28;20050;-75
2021/06/13 02:14:34;;;;;;;8.85;5.97;;;;;;;17.59;62.15;97356.34;5013276;28;20057;-73
2021/06/13 02:17:02;;;;;;;6.93;6.22;;;;;;;17.54;60.87;97354.31;5013112;28;20459;-75
2021/06/13 02:19:32;;;;;;;7.57;6.70;;;;;;;17.44;61.08;97354.75;5013173;28;20053;-76
2021/06/13 02:22:00;;;;;;;7.30;5.78;;;;;;;17.36;61.12;97360.25;5013591;28;20046;-75
2021/06/13 02:24:30;;;;;;;8.60;5.78;;;;;;;17.28;61.09;97365.75;5013025;28;20050;-75
2021/06/13 02:26:57;;;;;;;8.95;5.55;;;;;;;17.23;61.58;97366.38;5013065;28;20058;-75
2021/06/13 02:29:25;;;;;;;9.57;6.47;;;;;;;17.19;61.54;97370.44;5013171;28;20046;-75
2021/06/13 02:31:55;;;;;;;6.20;5.60;;;;;;;17.18;61.42;97366.16;5013074;28;20053;-75
2021/06/13 02:34:24;;;;;;;6.80;5.95;;;;;;;17.15;61.64;97371.84;5012645;28;20591;-75
2021/06/13 02:36:55;;;;;;;7.70;6.15;;;;;;;17.10;61.69;97369.03;5012648;28;20507;-75
2021/06/13 02:39:23;;;;;;;6.53;5.68;;;;;;;17.09;61.99;97368.19;5012936;28;20507;-75
2021/06/13 02:41:51;;;;;;;6.45;5.38;;;;;;;17.11;62.20;97370.63;5012151;28;20050;-75
2021/06/13 02:44:19;;;;;;;9.00;6.32;;;;;;;17.17;62.95;97374.28;5012532;28;20049;-75
2021/06/13 02:46:46;;;;;;;5.85;5.22;;;;;;;17.18;61.38;97381.97;5012494;28;20504;-74
2021/06/13 02:49:13;;;;;;;7.10;5.35;;;;;;;17.14;61.16;97382.59;5012972;28;20463;-74
2021/06/13 02:51:51;;;;;;;6.57;5.75;;;;;;;17.08;61.17;97376.31;5012877;28;20054;-75
2021/06/13 02:54:20;;;;;;;7.82;5.50;;;;;;;17.02;61.33;97382.41;5012488;28;20050;-75
2021/06/13 02:56:54;;;;;;;6.32;5.68;;;;;;;16.94;61.22;97385.22;5012595;28;20064;-75
2021/06/13 02:59:30;;;;;;;8.63;6.75;;;;;;;16.85;61.54;97380.16;5012601;28;20049;-75
2021/06/13 03:02:00;;;;;;;7.80;6.03;;;;;;;16.76;62.15;97386.59;5012711;28;20045;-75
2021/06/13 03:04:27;;;;;;;7.93;6.10;;;;;;;16.72;62.00;97376.69;5012346;28;20057;-75
2021/06/13 03:06:57;;;;;;;7.93;5.38;;;;;;;16.66;62.13;97384.38;5012437;28;20532;-75
2021/06/13 03:09:27;;;;;;;6.30;5.70;;;;;;;16.63;62.35;97390.03;5012604;28;20050;-75
2021/06/13 03:11:57;;;;;;;6.75;6.05;;;;;;;16.58;62.35;97383.75;5012282;28;20042;-75
2021/06/13 03:14:28;;;;;;;8.32;6.07;;;;;;;16.54;62.79;97390.44;5012299;28;20317;-75
2021/06/13 03:16:56;;;;;;;7.25;6.10;;;;;;;16.52;62.92;97389.81;5012268;28;20435;-75
2021/06/13 03:19:25;;;;;;;7.53;6.43;;;;;;;16.50;62.73;97394.47;5012338;28;20058;-75
2021/06/13 03:21:53;;;;;;;8.43;6.30;;;;;;;16.50;63.12;97397.13;5012292;28;20050;-75
2021/06/13 03:24:22;;;;;;;7.10;5.53;;;;;;;16.52;64.00;97400.38;5011836;28;20057;-75
2021/06/13 03:26:53;;;;;;;8.65;5.30;;;;;;;16.61;64.39;97401.78;5012342;28;20057;-75
2021/06/13 03:29:21;;;;;;;6.00;5.40;;;;;;;16.68;63.51;97402.59;5012374;28;20096;-75
2021/06/13 03:31:50;;;;;;;7.22;6.28;;;;;;;16.67;62.88;97407.06;5012224;28;20136;-75
2021/06/13 03:34:18;;;;;;;9.13;5.68;;;;;;;16.68;63.35;97407.88;5012129;28;20455;-76
2021/06/13 03:36:46;;;;;;;7.72;6.32;;;;;;;16.70;63.73;97403.22;5011993;28;20057;-75
2021/06/13 03:39:15;;;;;;;7.30;5.43;;;;;;;16.77;64.21;97400.59;5012453;28;20050;-75
2021/06/13 03:41:43;;;;;;;7.90;6.53;;;;;;;16.81;63.28;97407.13;5012251;28;20050;-75
2021/06/13 03:44:12;;;;;;;7.22;6.25;;;;;;;16.84;62.74;97407.53;5011610;28;20050;-76
2021/06/13 03:46:40;;;;;;;6.93;5.80;;;;;;;16.87;63.37;97407.13;5012074;28;20062;-76
2021/06/13 03:49:10;;;;;;;5.90;5.28;;;;;;;16.93;63.82;97407.34;5011936;28;20049;-76
2021/06/13 03:51:38;;;;;;;8.57;6.28;;;;;;;16.96;63.50;97409.56;5011847;28;20503;-76
2021/06/13 03:54:05;;;;;;;8.55;6.22;;;;;;;16.96;62.74;97409.56;5015782;28;20045;-76
2021/06/13 03:56:38;;;;;;;6.28;4.97;;;;;;;16.87;61.50;97412.38;5016095;28;20054;-76
2021/06/13 03:59:07;;;;;;;5.65;5.15;;;;;;;16.74;61.85;97412.34;5016013;28;20049;-76
2021/06/13 04:01:37;;;;;;;7.88;5.60;;;;;;;16.64;61.81;97412.75;5015653;28;20531;-75
2021/06/13 04:04:06;;;;;;;6.85;5.47;;;;;;;16.57;61.92;97426.91;5015774;28;20050;-76
2021/06/13 04:06:33;;;;;;;6.93;5.70;;;;;;;16.51;62.74;97420.63;5015987;28;20397;-75
2021/06/13 04:09:03;;;;;;;6.32;5.18;;;;;;;16.51;62.36;97414.53;5015877;28;20112;-76
2021/06/13 04:11:32;;;;;;;8.13;4.78;;;;;;;16.50;62.44;97412.91;5015800;28;20104;-76
2021/06/13 04:14:01;;;;;;;6.90;4.95;;;;;;;16.46;61.93;97412.50;5015397;28;20073;-74
2021/06/13 04:16:29;;;;;;;5.97;4.53;;;;;;;16.46;62.43;97418.59;5015516;28;20049;-75
2021/06/13 04:18:58;;;;;;;7.57;5.32;;;;;;;16.49;62.29;97420.00;5015653;28;20108;-76
2021/06/13 04:21:26;;;;;;;5.65;4.68;;;;;;;16.52;62.37;97430.13;5015637;28;20061;-76
2021/06/13 04:23:55;;;;;;;5.95;4.63;;;;;;;16.57;62.35;97432.16;5015118;28;20046;-75
2021/06/13 04:26:25;;;;;;;8.73;4.90;;;;;;;16.62;61.93;97433.22;5015419;28;20050;-76
2021/06/13 04:28:53;;;;;;;7.18;3.95;;;;;;;16.68;61.99;97434.22;5015300;28;20046;-74
2021/06/13 04:31:20;;;;;;;5.95;5.25;;;;;;;16.73;62.03;97437.09;5015492;28;20058;-76
2021/06/13 04:33:50;;;;;;;7.25;4.55;;;;;;;16.77;62.37;97442.75;5015402;28;20081;-76
2021/06/13 04:36:21;;;;;;;9.00;5.20;;;;;;;16.78;62.17;97442.56;5015183;28;20053;-76
2021/06/13 04:38:48;;;;;;;5.45;4.65;;;;;;;16.82;62.66;97449.06;5015371;28;20053;-75
2021/06/13 04:41:16;;;;;;;9.38;4.88;;;;;;;16.83;61.83;97450.69;5015345;28;20061;-75
2021/06/13 04:43:44;;;;;;;5.63;4.43;;;;;;;16.85;62.39;97453.94;5014717;28;20516;-75
2021/06/13 04:46:13;;;;;;;7.05;5.28;;;;;;;16.89;62.12;97449.88;5015206;28;20054;-75
2021/06/13 04:48:42;;;;;;;5.13;4.63;;;;;;;16.93;62.32;97452.13;5015208;28;20050;-76
2021/06/13 04:51:11;;;;;;;7.25;4.93;;;;;;;16.96;61.74;97451.72;5022272;28;20041;-75
2021/06/13 04:54:13;;;;;;;9.32;5.20;;;;;;;17.01;62.39;97451.91;5024994;28;20061;-75
2021/06/13 04:56:49;;;;;;;6.70;5.75;;;;;;;17.02;62.56;97462.28;5018445;28;20066;-76
2021/06/13 04:59:16;;;;;;;8.68;5.40;;;;;;;17.05;62.66;97461.06;5015553;28;20046;-75
2021/06/13 05:01:44;;;;;;;9.48;6.72;;;;;;;17.07;61.93;97462.47;5015076;28;20049;-75
2021/06/13 05:04:12;;;;;;;7.50;6.68;;;;;;;17.08;61.78;97458.84;5013753;28;20056;-75
2021/06/13 05:06:42;;;;;;;7.97;6.38;;;;;;;17.10;62.12;97461.28;5015030;28;20054;-76
2021/06/13 05:09:11;;;;;;;7.93;6.72;;;;;;;17.09;62.06;97467.56;5016714;28;20057;-76
2021/06/13 05:11:39;;;;;;;8.55;6.82;;;;;;;17.09;61.74;97464.91;5016021;28;20049;-76
2021/06/13 05:14:07;;;;;;;7.95;6.30;;;;;;;17.07;61.85;97469.56;5014916;28;20054;-76
2021/06/13 05:16:37;;;;;;;8.98;6.45;;;;;;;17.07;62.02;97464.31;5014745;28;20053;-76
2021/06/13 05:19:05;;;;;;;9.23;6.47;;;;;;;17.08;61.43;97468.56;5014749;28;20081;-76
2021/06/13 05:21:32;;;;;;;8.18;5.85;;;;;;;17.10;61.99;97479.72;5014654;28;20054;-76
2021/06/13 05:24:01;;;;;;;7.32;5.80;;;;;;;17.14;61.45;97478.28;5014245;28;20050;-76
2021/06/13 05:26:30;;;;;;;6.50;5.80;;;;;;;17.17;61.27;97482.38;5014360;28;20061;-76
2021/06/13 05:28:58;;;;;;;8.63;5.65;;;;;;;17.20;61.23;97480.13;5014263;28;20054;-76
2021/06/13 05:31:26;;;;;;;10.27;5.45;;;;;;;17.23;60.75;97487.66;5014143;28;20061;-75
2021/06/13 05:33:53;;;;;;;5.72;5.13;;;;;;;17.26;60.52;97483.78;5014140;28;20530;-75
2021/06/13 05:36:21;;;;;;;6.70;5.35;;;;;;;17.27;59.49;97490.69;5014135;28;20054;-74
2021/06/13 05:38:48;;;;;;;6.35;4.47;;;;;;;17.26;60.16;97489.06;5014128;28;20518;-75
2021/06/13 05:41:16;;;;;;;6.00;5.25;;;;;;;17.28;60.01;97493.13;5014032;28;20054;-75
2021/06/13 05:43:45;;;;;;;6.75;4.75;;;;;;;17.32;59.50;97493.53;5013639;28;20057;-75
2021/06/13 05:46:12;;;;;;;4.88;4.13;;;;;;;17.33;59.34;97489.06;5014135;28;20061;-75
2021/06/13 05:48:40;;;;;;;6.25;3.92;;;;;;;17.33;58.64;97489.88;5014097;28;20095;-74
2021/06/13 05:51:07;;;;;;;5.95;3.67;;;;;;;17.33;58.75;97495.16;5013913;28;20057;-76
2021/06/13 05:53:35;;;;;;;4.45;3.63;;;;;;;17.33;57.60;97491.69;5013678;28;20061;-74
2021/06/13 05:56:02;;;;;;;5.30;3.58;;;;;;;17.32;58.74;97492.69;5014649;28;20053;-72
2021/06/13 05:58:30;;;;;;;10.23;4.53;;;;;;;17.34;59.88;97504.69;5016342;28;20056;-71
2021/06/13 06:00:59;;;;;;;5.47;4.07;;;;;;;17.37;58.05;97498.19;5009470;28;20045;-76
2021/06/13 06:03:26;;;;;;;4.93;3.67;;;;;;;17.39;57.72;97498.81;5013081;28;20524;-76
2021/06/13 06:05:54;;;;;;;6.72;3.60;;;;;;;17.41;57.08;97499.41;5013245;28;20100;-75
2021/06/13 06:08:21;;;;;;;4.88;2.75;;;;;;;17.45;56.80;97503.28;5013289;28;20503;-75
2021/06/13 06:10:50;;;;;;;9.40;3.63;;;;;;;17.48;56.79;97501.03;5013093;28;20054;-75
2021/06/13 06:13:17;;;;;;;8.27;4.20;;;;;;;17.44;56.70;97510.34;5013335;28;20056;-75
2021/06/13 06:15:45;;;;;;;5.50;3.00;;;;;;;17.45;57.14;97505.91;5012257;28;20050;-76
2021/06/13 06:18:14;;;;;;;6.38;3.60;;;;;;;17.44;56.48;97514.81;5013232;28;20054;-75
2021/06/13 06:20:41;;;;;;;9.80;3.97;;;;;;;17.43;56.27;97519.28;5013010;28;20705;-77
2021/06/13 06:23:09;;;;;;;4.18;3.22;;;;;;;17.42;56.67;97520.28;5012899;28;20058;-75
2021/06/13 06:25:36;;;;;;;6.00;2.55;;;;;;;17.44;56.25;97522.75;5012887;28;20080;-76
2021/06/13 06:28:05;;;;;;;4.07;2.85;;;;;;;17.49;55.75;97520.28;5013092;28;20108;-76
2021/06/13 06:30:33;;;;;;;5.05;2.65;;;;;;;17.54;55.69;97522.34;5012954;28;20054;-75
2021/06/13 06:33:00;;;;;;;4.88;2.65;;;;;;;17.57;55.17;97520.09;5012719;28;20072;-74
2021/06/13 06:35:30;;;;;;;9.23;3.45;;;;;;;17.61;55.00;97523.16;5012885;28;20115;-76
2021/06/13 06:37:57;;;;;;;4.28;2.72;;;;;;;17.62;55.39;97515.03;5012658;28;20065;-76
2021/06/13 06:40:25;;;;;;;3.38;2.80;;;;;;;17.63;55.51;97521.94;5013152;28;20056;-75
2021/06/13 06:42:52;;;;;;;4.40;2.78;;;;;;;17.68;55.54;97522.13;5012554;28;20112;-76
2021/06/13 06:45:20;;;;;;;4.68;2.80;;;;;;;17.71;54.97;97524.38;5013049;28;20053;-77
2021/06/13 06:47:48;;;;;;;6.18;3.20;;;;;;;17.74;55.14;97522.34;5012668;28;20108;-75
2021/06/13 06:50:16;;;;;;;7.47;2.97;;;;;;;17.76;55.16;97521.09;5012724;28;20058;-76
2021/06/13 06:52:45;;;;;;;6.05;2.75;;;;;;;17.81;54.87;97525.78;5012455;28;20053;-74
2021/06/13 06:55:14;;;;;;;2.95;2.45;;;;;;;17.85;55.04;97532.28;5012698;28;20050;-74
2021/06/13 06:57:44;;;;;;;6.40;2.83;;;;;;;17.90;55.41;97537.75;5012726;28;20046;-75
2021/06/13 07:00:14;;;;;;;5.55;3.25;;;;;;;17.93;54.88;97542.66;5012441;28;20049;-74
2021/06/13 07:02:42;;;;;;;3.50;2.78;;;;;;;17.95;54.76;97550.34;5012503;28;20061;-74
2021/06/13 07:05:11;;;;;;;7.05;3.70;;;;;;;17.97;54.43;97558.88;5011869;28;20050;-75
2021/06/13 07:07:39;;;;;;;4.90;2.50;;;;;;;18.01;54.83;97565.38;5012678;28;20183;-75
2021/06/13 07:10:09;;;;;;;7.35;3.33;;;;;;;18.05;54.99;97562.09;5012021;28;20681;-76
2021/06/13 07:12:37;;;;;;;5.70;2.85;;;;;;;18.10;54.86;97567.59;5012757;28;20046;-76
2021/06/13 07:15:06;;;;;;;4.55;3.42;;;;;;;18.11;54.08;97563.13;5012392;28;20046;-74
2021/06/13 07:17:34;;;;;;;6.97;3.38;;;;;;;18.08;54.95;97563.53;5012259;28;20084;-74
2021/06/13 07:20:06;;;;;;;3.65;2.80;;;;;;;18.12;54.89;97562.09;5012720;28;20049;-73
2021/06/13 07:22:33;;;;;;;7.60;3.40;;;;;;;18.18;54.74;97571.03;5012436;28;20057;-74
2021/06/13 07:25:05;;;;;;;5.63;2.70;;;;;;;18.20;54.52;97576.91;5011866;28;20056;-76
2021/06/13 07:27:34;;;;;;;;;;;;;;;18.24;55.00;97576.31;5012151;28;20045;-77
2021/06/13 07:30:02;;;;;;;6.28;3.13;;;;;;;18.26;54.00;97574.25;5012723;28;19921;-76
2021/06/13 07:32:30;;;;;;;6.53;3.45;;;;;;;18.28;54.78;97563.50;5013603;28;20054;-76
2021/06/13 07:34:57;;;;;;;14.57;4.22;;;;;;;18.33;55.48;97566.31;5013682;28;20057;-77
2021/06/13 07:37:25;;;;;;;4.75;3.10;;;;;;;18.41;54.83;97566.09;5012446;28;20049;-74
2021/06/13 07:39:52;;;;;;;3.42;2.92;;;;;;;18.49;54.14;97562.41;4994676;28;20141;-76
2021/06/13 07:42:20;;;;;;;5.35;2.63;;;;;;;18.56;54.19;97565.03;5012015;28;20550;-74
2021/06/13 07:44:51;;;;;;;5.45;2.78;;;;;;;18.64;53.71;97580.66;5011508;28;20057;-76
2021/06/13 07:47:19;;;;;;;76.30;48.55;;;;;;;18.70;53.75;97579.81;5012382;28;20058;-75
2021/06/13 07:49:47;;;;;;;14.15;9.27;;;;;;;18.79;53.75;97583.88;5012146;28;20115;-75
2021/06/13 07:52:14;;;;;;;7.88;3.47;;;;;;;18.86;53.23;97575.91;5012231;28;20138;-76
2021/06/13 07:54:42;;;;;;;8.05;3.78;;;;;;;18.92;53.25;97586.47;5011570;28;20058;-75
2021/06/13 07:57:09;;;;;;;8.85;3.58;;;;;;;18.99;53.48;97575.03;5011984;28;20054;-76
2021/06/13 07:59:39;;;;;;;9.95;4.38;;;;;;;19.04;52.84;97576.00;5012856;28;20050;-77
2021/06/13 08:02:10;;;;;;;4.30;3.15;;;;;;;19.11;52.46;97584.75;5012471;28;20050;-74
2021/06/13 08:04:42;;;;;;;6.13;3.13;;;;;;;19.19;52.69;97583.66;5012106;28;20149;-75
2021/06/13 08:07:09;;;;;;;3.97;2.83;;;;;;;19.25;52.48;97588.13;5012293;28;20776;-76
2021/06/13 08:09:52;;;;;;;5.55;3.13;;;;;;;19.29;52.38;97589.31;5011849;28;20279;-76
2021/06/13 08:12:20;;;;;;;6.32;3.40;;;;;;;19.31;51.86;97595.22;5011612;28;20049;-76
2021/06/13 08:14:48;;;;;;;5.75;3.22;;;;;;;19.37;51.40;97587.44;5012364;28;20046;-76
2021/06/13 08:17:17;;;;;;;15.00;3.50;;;;;;;19.44;51.81;97590.84;5011937;28;20058;-75
2021/06/13 08:19:44;;;;;;;8.63;3.45;;;;;;;19.52;51.76;97585.28;5013353;28;20058;-74
2021/06/13 08:22:27;;;;;;;6.45;3.40;;;;;;;19.63;52.04;97595.19;5013971;28;20065;-75
2021/06/13 08:24:55;;;;;;;7.32;2.90;;;;;;;19.71;51.14;97589.66;5013100;28;20049;-76
2021/06/13 08:27:22;;;;;;;5.78;2.83;;;;;;;19.82;51.02;97582.03;5012595;28;20050;-77
2021/06/13 08:29:50;;;;;;;5.88;2.85;;;;;;;19.91;51.39;97581.53;5012950;28;20058;-75
2021/06/13 08:32:19;;;;;;;5.85;2.63;;;;;;;20.02;50.49;97581.88;5012987;28;20408;-76
2021/06/13 08:34:47;;;;;;;4.53;2.83;;;;;;;20.12;50.41;97582.19;5011706;28;20053;-76
2021/06/13 08:37:15;;;;;;;4.43;2.45;;;;;;;20.22;49.81;97584.31;5011580;28;20061;-75
2021/06/13 08:39:42;;;;;;;7.57;3.70;;;;;;;20.28;49.28;97586.91;5013160;28;20050;-75
2021/06/13 08:42:10;;;;;;;17.85;11.57;;;;;;;20.31;49.16;97586.50;5015393;28;20049;-74
2021/06/13 08:44:39;;;;;;;6.63;3.60;;;;;;;20.35;48.04;97578.88;5014479;28;20062;-74
2021/06/13 08:47:11;;;;;;;2.83;2.08;;;;;;;20.37;47.68;97574.19;5015275;28;20050;-75
2021/06/13 08:49:41;;;;;;;8.05;2.63;;;;;;;20.41;48.72;97574.56;5015097;28;20050;-76
2021/06/13 08:52:09;;;;;;;4.05;2.40;;;;;;;20.46;48.09;97572.03;5015024;28;20050;-76
2021/06/13 08:54:36;;;;;;;4.05;2.22;;;;;;;20.50;48.32;97567.94;5014454;28;20053;-75
2021/06/13 08:57:05;;;;;;;4.78;1.98;;;;;;;20.56;48.52;97564.41;5015012;28;20053;-74
2021/06/13 08:59:33;;;;;;;6.38;2.40;;;;;;;20.62;47.73;97566.19;5014931;28;20050;-75
2021/06/13 09:02:01;;;;;;;5.03;1.90;;;;;;;20.68;46.87;97569.78;5014537;28;20054;-76
2021/06/13 09:04:29;;;;;;;6.70;2.33;;;;;;;20.73;46.73;97562.78;5014652;28;20092;-74
2021/06/13 09:06:58;;;;;;;4.20;2.05;;;;;;;20.79;46.58;97561.06;5014447;28;20046;-74
2021/06/13 09:09:29;;;;;;;3.10;2.00;;;;;;;20.85;46.48;97559.38;5014539;28;20046;-74
2021/06/13 09:11:58;;;;;;;2.90;1.73;;;;;;;20.87;45.99;97563.44;5014677;28;20081;-77
2021/06/13 09:14:27;;;;;;;6.75;2.25;;;;;;;20.88;45.59;97558.91;5015723;28;20389;-77
2021/06/13 09:16:56;;;;;;;3.50;2.15;;;;;;;20.89;45.91;97564.00;5016152;28;20042;-75
2021/06/13 09:19:24;;;;;;;4.40;2.17;;;;;;;20.94;45.60;97569.44;5016246;28;20149;-76
2021/06/13 09:21:51;;;;;;;6.97;2.13;;;;;;;20.98;45.92;97562.66;5015687;28;20046;-77
2021/06/13 09:24:22;;;;;;;6.40;2.35;;;;;;;21.04;45.52;97565.47;5016040;28;20054;-77
2021/06/13 09:26:50;;;;;;;3.63;1.90;;;;;;;21.08;45.72;97564.78;5015305;28;20041;-76
2021/06/13 09:29:18;;;;;;;4.25;2.03;;;;;;;21.12;46.00;97568.63;5017257;28;20061;-78
2021/06/13 09:31:48;;;;;;;4.10;2.05;;;;;;;21.15;45.46;97554.88;5016780;28;20497;-77
2021/06/13 09:34:18;;;;;;;2.35;1.90;;;;;;;21.17;45.36;97563.44;5016156;28;20427;-77
2021/06/13 09:36:46;;;;;;;5.30;2.30;;;;;;;21.22;44.90;97564.59;5015795;28;20054;-78
2021/06/13 09:39:15;;;;;;;5.65;2.45;;;;;;;21.28;44.57;97564.50;5015453;28;20052;-78
2021/06/13 09:41:46;;;;;;;3.40;2.15;;;;;;;21.38;45.46;97569.25;5015379;28;20112;-77
2021/06/13 09:44:15;;;;;;;3.75;2.38;;;;;;;21.44;44.33;97568.38;5014245;28;20124;-76
2021/06/13 09:46:45;;;;;;;4.72;2.05;;;;;;;21.46;43.18;97565.50;5014454;28;20046;-78
2021/06/13 09:49:15;;;;;;;3.15;1.75;;;;;;;21.44;43.94;97573.69;5015089;28;20057;-78
2021/06/13 09:51:45;;;;;;;4.90;2.08;;;;;;;21.45;43.75;97577.13;5013966;28;20057;-78
2021/06/13 09:54:19;;;;;;;4.35;2.15;;;;;;;21.50;44.15;97580.75;5014489;28;20050;-76
2021/06/13 09:56:48;;;;;;;4.82;2.05;;;;;;;21.56;44.87;97585.16;5015060;28;20054;-77
2021/06/13 09:59:18;;;;;;;4.05;1.63;;;;;;;21.56;44.12;97582.50;5015027;28;20046;-76
2021/06/13 10:01:48;;;;;;;5.15;1.88;;;;;;;21.60;44.67;97572.22;5014629;28;20050;-75
2021/06/13 10:04:29;;;;;;;3.78;1.90;;;;;;;21.69;43.97;97585.97;5014135;28;20206;-76
2021/06/13 10:06:59;;;;;;;2.50;1.50;;;;;;;21.74;42.42;97576.28;5014444;28;20042;-77
2021/06/13 10:09:37;;;;;;;3.10;1.63;;;;;;;21.78;41.92;97577.44;5014730;28;20066;-78
2021/06/13 10:12:08;;;;;;;4.35;1.38;;;;;;;21.81;42.25;97586.78;5018245;28;20050;-80
2021/06/13 10:14:37;;;;;;;3.50;1.90;;;;;;;21.88;44.17;97579.50;5016191;28;20050;-78
2021/06/13 10:17:07;;;;;;;5.72;2.70;;;;;;;21.94;43.20;97577.81;5014844;28;20381;-80
2021/06/13 10:19:39;;;;;;;4.95;2.03;;;;;;;21.96;43.06;97575.72;5014812;28;20054;-79
2021/06/13 10:22:07;;;;;;;4.30;2.30;;;;;;;21.97;43.61;97577.31;5015209;28;20060;-79
2021/06/13 10:24:37;;;;;;;4.47;2.53;;;;;;;22.00;42.78;97592.81;5017421;28;20482;-79
2021/06/13 10:27:08;;;;;;;9.60;2.00;;;;;;;22.04;43.02;97585.19;5014764;28;20049;-77
2021/06/13 10:29:38;;;;;;;3.15;2.72;;;;;;;22.10;41.81;97577.09;5013616;28;20053;-76
2021/06/13 10:32:07;;;;;;;3.63;2.08;;;;;;;22.15;42.51;97579.88;5014094;28;20057;-76
2021/06/13 10:34:35;;;;;;;5.18;2.15;;;;;;;22.20;43.14;97584.50;5012994;28;20085;-76
2021/06/13 10:37:06;;;;;;;8.45;3.05;;;;;;;22.23;43.04;97578.75;5012896;28;20057;-74
2021/06/13 10:39:36;;;;;;;4.30;1.98;;;;;;;22.27;42.78;97571.13;5012699;28;20049;-74
2021/06/13 10:42:09;;;;;;;2.38;1.60;;;;;;;22.28;42.30;97573.56;5013630;28;20061;-77
2021/06/13 10:44:45;;;;;;;4.80;2.53;;;;;;;22.31;42.09;97569.63;5013481;28;20056;-77
2021/06/13 10:47:15;;;;;;;3.90;2.05;;;;;;;22.35;43.02;97568.13;5013664;28;20050;-76
2021/06/13 10:49:47;;;;;;;2.47;1.90;;;;;;;22.38;43.03;97567.63;5015401;28;20045;-77
2021/06/13 10:52:16;;;;;;;3.35;1.50;;;;;;;22.43;43.06;97565.06;5013158;28;20054;-77
2021/06/13 10:54:56;;;;;;;2.85;1.55;;;;;;;22.47;43.80;97560.91;5013250;28;20052;-76
2021/06/13 10:57:33;;;;;;;3.42;1.40;;;;;;;22.51;41.55;97564.72;5013476;28;20428;-76
2021/06/13 11:00:33;;;;;;;3.92;2.15;;;;;;;22.53;43.04;97573.25;5012815;28;20550;-75
2021/06/13 11:03:01;;;;;;;4.60;2.00;;;;;;;22.54;42.59;97564.25;5012314;28;20081;-76
2021/06/13 11:05:46;;;;;;;3.92;1.70;;;;;;;22.53;42.63;97565.28;5012600;28;20120;-75
2021/06/13 11:08:15;;;;;;;1.48;1.33;;;;;;;22.54;42.10;97561.59;5012377;28;20045;-76
2021/06/13 11:10:44;;;;;;;4.07;1.90;;;;;;;22.58;43.09;97561.94;5012940;28;20057;-76
2021/06/13 11:13:15;;;;;;;2.63;1.48;;;;;;;22.60;41.71;97559.84;5011891;28;20050;-74
2021/06/13 11:16:00;;;;;;;1.45;1.10;;;;;;;22.59;41.58;97555.59;5012675;28;20060;-74
2021/06/13 11:18:30;;;;;;;2.80;1.10;;;;;;;22.59;40.52;97552.91;5012146;28;20045;-75
2021/06/13 11:21:07;;;;;;;2.13;1.40;;;;;;;22.59;40.24;97553.72;5012252;28;20062;-73
2021/06/13 11:23:43;;;;;;;2.90;1.10;;;;;;;22.61;40.38;97559.63;5011830;28;20074;-75
2021/06/13 11:26:41;;;;;;;1.40;1.27;;;;;;;22.61;39.60;97558.81;5012343;28;20072;-74
2021/06/13 11:29:10;;;;;;;1.92;1.10;;;;;;;22.60;39.52;97549.22;5011342;28;20519;-76
2021/06/13 11:31:52;;;;;;;4.28;1.60;;;;;;;22.63;39.72;97551.41;5012489;28;20053;-76
2021/06/13 11:34:22;;;;;;;3.60;1.50;;;;;;;22.66;39.25;97552.78;5012020;28;20050;-74
2021/06/13 11:36:50;;;;;;;5.68;1.70;;;;;;;22.68;39.84;97556.03;5012092;28;20052;-76
2021/06/13 11:39:29;;;;;;;2.80;1.38;;;;;;;22.71;39.59;97558.19;5004415;28;20088;-76
2021/06/13 11:42:14;;;;;;;2.60;1.27;;;;;;;22.75;39.34;97562.00;5001997;28;20049;-76
2021/06/13 11:44:53;;;;;;;2.47;0.98;;;;;;;22.77;39.07;97555.41;5006764;28;20057;-75
2021/06/13 11:47:41;;;;;;;4.05;1.48;;;;;;;22.79;39.66;97557.84;5007653;28;20064;-74